Lobo

Go HERE for most recent data if this page is not up to date.

Jump to table bottom
Date/Time Temp deg F RH % 24 Hr Snow (in) Snow Depth (in) H2O (in)
02/29 08:00 21.2 71 0.0 41.5 0.00
02/29 07:00 22.0 71 0.0 41.5 0.00
02/29 06:00 20.9 70 0.2 41.6 0.00
02/29 05:00 16.1 82 0.1 41.5 0.00
02/29 04:00 16.7 85 0.0 41.6 0.00
02/29 03:00 15.6 84 0.0 41.6 0.00
02/29 02:00 15.3 86 0.0 41.7 0.00
02/29 01:00 15.9 83 -0.0 41.6 0.00
02/29 00:00 18.1 81 -0.0 41.6 0.00
02/28 23:00 19.0 76 0.0 41.8 0.00
02/28 22:00 19.2 74 0.0 41.7 0.00
02/28 21:00 20.0 74 0.0 41.8 0.00
02/28 20:00 20.1 73 0.0 41.8 0.00
02/28 19:00 20.0 73 -0.0 41.9 0.00
02/28 18:00 20.6 75 -0.0 42.0 0.00
02/28 17:00 22.2 69 -0.2 42.0 0.00
02/28 16:00 22.9 65 -0.2 42.0 0.00
02/28 15:00 25.3 63 -0.3 42.0 0.00
02/28 14:00 22.2 59 -0.0 42.0 0.00
02/28 13:00 20.9 65 -0.0 42.2 0.00
02/28 12:00 19.2 66 -0.1 42.3 0.00
02/28 11:00 17.8 65 -0.0 42.3 0.00
02/28 10:00 14.5 72 0.0 42.4 0.00
02/28 09:00 12.0 73 0.1 42.5 0.00
02/28 08:00 9.8 72 0.2 42.6 0.00
02/28 07:00 8.9 70 0.1 42.6 0.00
02/28 06:00 8.3 71 0.2 42.7 0.00
02/28 05:00 6.9 71 0.1 42.7 0.00
02/28 04:00 6.0 72 0.2 42.8 0.00
02/28 03:00 5.6 63 0.1 42.9 0.00
02/28 02:00 4.4 61 0.1 42.8 0.00
02/28 01:00 3.8 63 0.1 42.9 0.00
02/28 00:00 3.7 60 0.1 43.0 0.00
.